createdAt,value
2019-05-16T00:00:00.470Z,22.26
2019-05-16T00:00:29.034Z,22.27
2019-05-16T00:00:53.076Z,22.27
2019-05-16T00:01:19.305Z,22.26
2019-05-16T00:01:44.818Z,22.26
2019-05-16T00:02:10.014Z,22.25
2019-05-16T00:03:08.028Z,22.30
2019-05-16T00:03:33.568Z,22.23
2019-05-16T00:03:58.727Z,22.23
2019-05-16T00:04:23.934Z,22.23
2019-05-16T00:04:48.571Z,22.22
2019-05-16T00:05:13.756Z,22.22
2019-05-16T00:05:50.883Z,22.22
2019-05-16T00:06:05.860Z,22.22
2019-05-16T00:06:30.759Z,22.20
2019-05-16T00:06:55.976Z,22.20
2019-05-16T00:07:21.176Z,22.20
2019-05-16T00:07:48.980Z,22.19
2019-05-16T00:08:13.215Z,22.19
2019-05-16T00:08:38.881Z,22.19
2019-05-16T00:09:05.246Z,22.19
2019-05-16T00:09:30.445Z,22.18
2019-05-16T00:09:55.067Z,22.17
2019-05-16T00:10:20.232Z,22.16
2019-05-16T00:10:48.581Z,22.17
2019-05-16T00:11:13.065Z,22.15
2019-05-16T00:11:38.397Z,22.16
2019-05-16T00:12:04.261Z,22.14
2019-05-16T00:12:29.436Z,22.15
2019-05-16T00:12:54.615Z,22.15
2019-05-16T00:13:19.322Z,22.14
2019-05-16T00:13:44.502Z,22.14
2019-05-16T00:14:09.671Z,22.13
2019-05-16T00:14:34.858Z,22.13
2019-05-16T00:15:00.090Z,22.11
2019-05-16T00:15:24.774Z,22.11
2019-05-16T00:15:50.042Z,22.10
2019-05-16T00:16:15.261Z,22.11
2019-05-16T00:16:40.467Z,22.10
2019-05-16T00:17:08.195Z,22.09
2019-05-16T00:17:32.070Z,22.09
2019-05-16T00:17:58.287Z,22.08
2019-05-16T00:18:23.891Z,22.08
2019-05-16T00:18:49.118Z,22.08
2019-05-16T00:19:14.368Z,22.08
2019-05-16T00:19:39.518Z,22.07
2019-05-16T00:20:09.215Z,22.07
2019-05-16T00:20:34.777Z,22.06
2019-05-16T00:20:59.406Z,22.06
2019-05-16T00:21:24.653Z,22.06
2019-05-16T00:21:49.840Z,22.04
2019-05-16T00:22:15.066Z,22.04
2019-05-16T00:22:40.254Z,22.05
2019-05-16T00:23:04.868Z,22.04
2019-05-16T00:23:30.056Z,22.04
2019-05-16T00:23:55.302Z,22.03
2019-05-16T00:24:20.519Z,22.04
2019-05-16T00:24:45.710Z,22.02
2019-05-16T00:25:10.329Z,22.02
2019-05-16T00:25:35.500Z,22.01
2019-05-16T00:26:00.928Z,22.01
2019-05-16T00:26:28.191Z,22.01
2019-05-16T00:26:52.560Z,22.01
2019-05-16T00:27:18.590Z,22.01
2019-05-16T00:27:43.980Z,22.00
2019-05-16T00:28:09.154Z,21.99
2019-05-16T00:28:33.804Z,21.99
2019-05-16T00:28:59.065Z,21.99
2019-05-16T00:29:24.268Z,21.98
2019-05-16T00:29:49.462Z,21.97
2019-05-16T00:30:14.484Z,21.97
2019-05-16T00:30:39.662Z,21.97
2019-05-16T00:31:04.831Z,21.96
2019-05-16T00:31:30.037Z,21.95
2019-05-16T00:31:55.236Z,21.96
2019-05-16T00:32:19.876Z,21.95
2019-05-16T00:32:45.074Z,21.95
2019-05-16T00:33:10.278Z,21.94
2019-05-16T00:33:35.484Z,21.94
2019-05-16T00:34:00.652Z,21.93
2019-05-16T00:34:25.286Z,21.94
2019-05-16T00:34:50.459Z,21.94
2019-05-16T00:35:18.047Z,21.94
2019-05-16T00:35:42.570Z,21.93
2019-05-16T00:36:09.159Z,21.92
2019-05-16T00:36:34.158Z,21.93
2019-05-16T00:36:59.094Z,21.92
2019-05-16T00:37:24.331Z,21.92
2019-05-16T00:37:48.961Z,21.92
2019-05-16T00:38:14.980Z,21.91
2019-05-16T00:38:40.170Z,21.91
2019-05-16T00:39:08.225Z,21.92
2019-05-16T00:39:32.610Z,21.91
2019-05-16T00:39:58.807Z,21.91
2019-05-16T00:40:24.292Z,21.90
2019-05-16T00:40:49.443Z,21.90
2019-05-16T00:41:14.430Z,21.89
2019-05-16T00:41:39.908Z,21.90
2019-05-16T00:42:05.090Z,21.89
2019-05-16T00:42:30.341Z,21.89
2019-05-16T00:42:55.501Z,21.88
2019-05-16T00:43:20.174Z,21.89
2019-05-16T00:43:45.443Z,21.88
2019-05-16T00:44:10.640Z,21.87
2019-05-16T00:44:35.817Z,21.88
2019-05-16T00:45:01.210Z,21.87
2019-05-16T00:45:29.139Z,21.86
2019-05-16T00:45:53.832Z,21.87
2019-05-16T00:46:20.104Z,21.87
2019-05-16T00:46:45.009Z,21.86
2019-05-16T00:47:10.199Z,21.85
2019-05-16T00:47:35.389Z,21.85
2019-05-16T00:48:00.587Z,21.85
2019-05-16T00:48:25.206Z,21.83
2019-05-16T00:48:50.383Z,21.83
2019-05-16T00:49:15.570Z,21.83
2019-05-16T00:49:40.766Z,21.83
2019-05-16T00:50:05.943Z,21.84
2019-05-16T00:50:30.543Z,21.82
2019-05-16T00:50:55.812Z,21.82
2019-05-16T00:51:21.006Z,21.83
2019-05-16T00:51:48.063Z,21.82
2019-05-16T00:52:12.491Z,21.81
2019-05-16T00:52:39.449Z,21.81
2019-05-16T00:53:04.826Z,21.82
2019-05-16T00:53:30.001Z,21.81
2019-05-16T00:53:54.650Z,21.81
2019-05-16T00:54:19.918Z,21.80
2019-05-16T00:54:45.093Z,21.80
2019-05-16T00:55:10.311Z,21.80
2019-05-16T00:55:35.529Z,21.79
2019-05-16T00:56:00.326Z,21.79
2019-05-16T00:56:26.063Z,21.78
2019-05-16T00:56:51.259Z,21.79
2019-05-16T00:57:18.789Z,21.78
2019-05-16T00:57:43.245Z,21.78
2019-05-16T00:58:08.931Z,21.78
2019-05-16T00:58:34.272Z,21.77
2019-05-16T00:58:59.853Z,21.77
2019-05-16T00:59:24.459Z,21.76
2019-05-16T00:59:49.948Z,21.77
2019-05-16T01:00:18.051Z,21.77
2019-05-16T01:00:50.506Z,21.76
2019-05-16T01:01:15.389Z,21.76
2019-05-16T01:01:40.597Z,21.75
2019-05-16T01:02:05.761Z,21.75
2019-05-16T01:02:30.991Z,21.75
2019-05-16T01:02:57.831Z,21.75
2019-05-16T01:03:22.612Z,21.74
2019-05-16T01:03:48.328Z,21.74
2019-05-16T01:04:15.141Z,21.74
2019-05-16T01:04:40.343Z,21.74
2019-05-16T01:05:08.271Z,21.74
2019-05-16T01:05:32.876Z,21.73
2019-05-16T01:05:58.313Z,21.72
2019-05-16T01:06:24.010Z,21.73
2019-05-16T01:06:48.658Z,21.72
2019-05-16T01:07:13.885Z,21.73
2019-05-16T01:07:39.403Z,21.71
2019-05-16T01:08:04.801Z,21.71
2019-05-16T01:08:30.405Z,21.71
2019-05-16T01:08:57.907Z,21.71
2019-05-16T01:09:22.657Z,21.71
2019-05-16T01:09:48.830Z,21.70
2019-05-16T01:10:14.572Z,21.70
2019-05-16T01:10:39.921Z,21.70
2019-05-16T01:11:05.178Z,21.70
2019-05-16T01:11:30.394Z,21.69
2019-05-16T01:11:57.825Z,21.68
2019-05-16T01:12:21.927Z,21.68
2019-05-16T01:12:48.064Z,21.69
2019-05-16T01:13:13.431Z,21.68
2019-05-16T01:13:38.607Z,21.67
2019-05-16T01:14:04.459Z,21.67
2019-05-16T01:14:29.640Z,21.66
2019-05-16T01:14:54.835Z,21.68
2019-05-16T01:15:20.994Z,21.67
2019-05-16T01:15:48.402Z,21.66
2019-05-16T01:16:13.129Z,21.66
2019-05-16T01:16:38.402Z,21.66
2019-05-16T01:17:03.551Z,21.66
2019-05-16T01:17:28.466Z,21.65
2019-05-16T01:17:54.309Z,21.65
2019-05-16T01:18:19.517Z,21.64
2019-05-16T01:18:44.880Z,21.65
2019-05-16T01:19:09.512Z,21.64
2019-05-16T01:19:34.705Z,21.64
2019-05-16T01:19:59.920Z,21.63
2019-05-16T01:20:25.110Z,21.64
2019-05-16T01:20:50.381Z,21.63
2019-05-16T01:21:15.175Z,21.64
2019-05-16T01:21:40.363Z,21.64
2019-05-16T01:22:05.531Z,21.64
2019-05-16T01:22:30.731Z,21.64
2019-05-16T01:22:58.158Z,21.65
2019-05-16T01:23:22.665Z,21.63
2019-05-16T01:23:48.314Z,21.64
2019-05-16T01:24:13.678Z,21.63
2019-05-16T01:24:41.504Z,21.65
2019-05-16T01:25:06.195Z,21.63
2019-05-16T01:25:31.390Z,21.63
2019-05-16T01:25:58.919Z,21.62
2019-05-16T01:26:24.207Z,21.62
2019-05-16T01:26:48.833Z,21.62
2019-05-16T01:27:15.951Z,21.63
2019-05-16T01:27:47.735Z,21.63
2019-05-16T01:28:13.009Z,21.62
2019-05-16T01:28:37.855Z,21.62
2019-05-16T01:29:03.153Z,21.62
2019-05-16T01:29:28.363Z,21.63
2019-05-16T01:29:53.693Z,21.62
2019-05-16T01:30:18.814Z,21.62
2019-05-16T01:30:44.247Z,21.63
2019-05-16T01:31:09.517Z,21.62
2019-05-16T01:31:34.749Z,21.62
2019-05-16T01:31:59.350Z,21.61
2019-05-16T01:32:24.792Z,21.62
2019-05-16T01:32:49.985Z,21.61
2019-05-16T01:33:15.181Z,21.62
2019-05-16T01:33:40.427Z,21.61
2019-05-16T01:34:07.649Z,21.61
2019-05-16T01:34:32.239Z,21.61
2019-05-16T01:34:58.898Z,21.61
2019-05-16T01:35:24.320Z,21.61
2019-05-16T01:35:49.001Z,21.60
2019-05-16T01:36:15.358Z,21.60
2019-05-16T01:36:40.948Z,21.60
2019-05-16T01:37:08.315Z,21.60
2019-05-16T01:37:32.756Z,21.60
2019-05-16T01:37:58.158Z,21.60
2019-05-16T01:38:23.397Z,21.59
2019-05-16T01:38:48.664Z,21.60
2019-05-16T01:39:13.269Z,21.59
2019-05-16T01:39:38.441Z,21.58
2019-05-16T01:40:03.635Z,21.59
2019-05-16T01:40:28.812Z,21.59
2019-05-16T01:40:54.091Z,21.59
2019-05-16T01:41:18.837Z,21.59
2019-05-16T01:41:44.015Z,21.58
2019-05-16T01:42:09.194Z,21.59
2019-05-16T01:42:34.374Z,21.58
2019-05-16T01:42:59.541Z,21.57
2019-05-16T01:43:24.159Z,21.58
2019-05-16T01:43:49.388Z,21.58
2019-05-16T01:44:15.191Z,21.58
2019-05-16T01:44:40.383Z,21.58
2019-05-16T01:45:08.226Z,21.58
2019-05-16T01:45:33.224Z,21.57
2019-05-16T01:45:58.639Z,21.57
2019-05-16T01:46:23.864Z,21.58
2019-05-16T01:46:48.573Z,21.57
2019-05-16T01:47:13.751Z,21.57
2019-05-16T01:47:39.513Z,21.55
2019-05-16T01:48:04.809Z,21.55
2019-05-16T01:48:30.196Z,21.57
2019-05-16T01:48:57.797Z,21.55
2019-05-16T01:49:23.246Z,21.56
2019-05-16T01:49:48.941Z,21.54
2019-05-16T01:50:17.868Z,21.54
2019-05-16T01:50:42.486Z,21.53
2019-05-16T01:51:07.875Z,21.53
2019-05-16T01:51:33.407Z,21.52
2019-05-16T01:51:58.039Z,21.53
2019-05-16T01:52:23.216Z,21.52
2019-05-16T01:52:48.881Z,21.51
2019-05-16T01:53:17.663Z,21.51
2019-05-16T01:53:41.573Z,21.51
2019-05-16T01:54:08.654Z,21.51
2019-05-16T01:54:33.736Z,21.51
2019-05-16T01:54:59.269Z,21.50
2019-05-16T01:55:23.893Z,21.51
2019-05-16T01:55:49.151Z,21.51
2019-05-16T01:56:15.279Z,21.50
2019-05-16T01:56:40.479Z,21.49
2019-05-16T01:57:05.159Z,21.50
2019-05-16T01:57:30.360Z,21.49
2019-05-16T01:57:55.567Z,21.49
2019-05-16T01:58:20.793Z,21.49
2019-05-16T01:58:45.952Z,21.48
2019-05-16T01:59:10.639Z,21.48
2019-05-16T01:59:37.922Z,21.48
2019-05-16T02:00:02.708Z,21.49
2019-05-16T02:00:35.709Z,21.48
2019-05-16T02:01:06.037Z,21.48
2019-05-16T02:01:21.145Z,21.48
2019-05-16T02:01:48.265Z,21.48
2019-05-16T02:02:14.395Z,21.47
2019-05-16T02:02:40.872Z,21.47
2019-05-16T02:03:08.099Z,21.48
2019-05-16T02:03:32.978Z,21.47
2019-05-16T02:03:58.717Z,21.47
2019-05-16T02:04:24.258Z,21.47
2019-05-16T02:04:49.428Z,21.45
2019-05-16T02:05:14.598Z,21.46
2019-05-16T02:05:39.851Z,21.46
2019-05-16T02:06:05.178Z,21.46
2019-05-16T02:06:29.831Z,21.45
2019-05-16T02:06:55.243Z,21.46
2019-05-16T02:07:20.454Z,21.45
2019-05-16T02:07:47.871Z,21.46
2019-05-16T02:08:11.970Z,21.46
2019-05-16T02:08:38.021Z,21.45
2019-05-16T02:09:04.348Z,21.45
2019-05-16T02:09:30.298Z,21.44
2019-05-16T02:09:54.882Z,21.45
2019-05-16T02:10:20.083Z,21.45
2019-05-16T02:10:47.670Z,21.44
2019-05-16T02:11:12.351Z,21.44
2019-05-16T02:11:38.821Z,21.44
2019-05-16T02:12:04.111Z,21.44
2019-05-16T02:12:29.292Z,21.45
2019-05-16T02:12:54.466Z,21.44
2019-05-16T02:13:19.662Z,21.43
2019-05-16T02:13:44.276Z,21.44
2019-05-16T02:14:09.620Z,21.44
2019-05-16T02:14:34.883Z,21.43
2019-05-16T02:15:00.061Z,21.42
2019-05-16T02:15:25.244Z,21.42
2019-05-16T02:15:49.896Z,21.43
2019-05-16T02:16:15.187Z,21.42
2019-05-16T02:16:40.334Z,21.42
2019-05-16T02:17:05.504Z,21.42
2019-05-16T02:17:30.676Z,21.43
2019-05-16T02:17:55.299Z,21.41
2019-05-16T02:18:20.482Z,21.42
2019-05-16T02:18:45.722Z,21.41
2019-05-16T02:19:10.937Z,21.41
2019-05-16T02:19:38.370Z,21.41
2019-05-16T02:20:02.467Z,21.41
2019-05-16T02:20:28.243Z,21.42
2019-05-16T02:20:53.620Z,21.41
2019-05-16T02:21:18.840Z,21.42
2019-05-16T02:21:43.468Z,21.41
2019-05-16T02:22:09.015Z,21.41
2019-05-16T02:22:34.312Z,21.40
2019-05-16T02:22:59.478Z,21.41
2019-05-16T02:23:24.770Z,21.40
2019-05-16T02:23:51.704Z,21.41
2019-05-16T02:24:18.252Z,21.39
2019-05-16T02:24:43.716Z,21.40
2019-05-16T02:25:09.102Z,21.38
2019-05-16T02:25:33.792Z,21.40
2019-05-16T02:25:59.086Z,21.39
2019-05-16T02:26:24.296Z,21.40
2019-05-16T02:26:52.505Z,21.39
2019-05-16T02:27:18.069Z,21.39
2019-05-16T02:27:42.698Z,21.39
2019-05-16T02:28:07.918Z,21.38
2019-05-16T02:28:39.779Z,21.38
2019-05-16T02:29:00.853Z,21.39
2019-05-16T02:29:26.344Z,21.38
2019-05-16T02:29:51.533Z,21.38
2019-05-16T02:30:16.713Z,21.37
2019-05-16T02:30:42.343Z,21.38
2019-05-16T02:31:07.589Z,21.37
2019-05-16T02:31:32.766Z,21.37
2019-05-16T02:32:01.575Z,21.37
2019-05-16T02:32:24.382Z,21.36
2019-05-16T02:32:52.317Z,21.37
2019-05-16T02:33:16.426Z,21.36
2019-05-16T02:33:41.625Z,21.37
2019-05-16T02:34:06.240Z,21.36
2019-05-16T02:34:31.404Z,21.36
2019-05-16T02:34:56.603Z,21.36
2019-05-16T02:35:21.851Z,21.36
2019-05-16T02:35:47.031Z,21.35
2019-05-16T02:36:11.662Z,21.36
2019-05-16T02:36:36.854Z,21.36
2019-05-16T02:37:18.410Z,21.36
2019-05-16T02:37:33.468Z,21.36
2019-05-16T02:37:55.581Z,21.36
2019-05-16T02:38:21.391Z,21.35
2019-05-16T02:38:46.803Z,21.35
2019-05-16T02:39:11.978Z,21.35
2019-05-16T02:39:36.608Z,21.34
2019-05-16T02:40:01.964Z,21.34
2019-05-16T02:40:27.351Z,21.34
2019-05-16T02:40:55.237Z,21.34
2019-05-16T02:41:21.582Z,21.34
2019-05-16T02:41:46.244Z,21.32
2019-05-16T02:42:12.250Z,21.34
2019-05-16T02:42:37.594Z,21.32
2019-05-16T02:43:02.304Z,21.32
2019-05-16T02:43:31.066Z,21.34
2019-05-16T02:43:54.577Z,21.34
2019-05-16T02:44:24.093Z,21.31
2019-05-16T02:44:46.100Z,21.32
2019-05-16T02:45:11.441Z,21.32
2019-05-16T02:45:36.852Z,21.31
2019-05-16T02:46:02.114Z,21.31
2019-05-16T02:46:26.728Z,21.31
2019-05-16T02:46:51.903Z,21.31
2019-05-16T02:47:17.087Z,21.30
2019-05-16T02:47:43.027Z,21.31
2019-05-16T02:48:10.799Z,21.31
2019-05-16T02:48:35.531Z,21.30
2019-05-16T02:49:01.065Z,21.30
2019-05-16T02:49:26.318Z,21.30
2019-05-16T02:49:50.955Z,21.30
2019-05-16T02:50:16.917Z,21.30
2019-05-16T02:50:42.121Z,21.30
2019-05-16T02:51:10.809Z,21.29
2019-05-16T02:51:33.689Z,21.30
2019-05-16T02:52:01.306Z,21.30
2019-05-16T02:52:25.842Z,21.30
2019-05-16T02:52:51.881Z,21.29
2019-05-16T02:53:16.738Z,21.29
2019-05-16T02:53:41.958Z,21.29
2019-05-16T02:54:10.733Z,21.29
2019-05-16T02:54:34.097Z,21.28
2019-05-16T02:55:00.852Z,21.29
2019-05-16T02:55:25.596Z,21.29
2019-05-16T02:55:51.678Z,21.28
2019-05-16T02:56:17.177Z,21.28
2019-05-16T02:56:42.095Z,21.29
2019-05-16T02:57:10.843Z,21.28
2019-05-16T02:57:34.286Z,21.28
2019-05-16T02:58:00.737Z,21.28
2019-05-16T02:58:25.865Z,21.28
2019-05-16T02:58:52.082Z,21.28
2019-05-16T02:59:20.370Z,21.28
2019-05-16T02:59:44.488Z,21.28
2019-05-16T03:00:12.101Z,21.28
2019-05-16T03:00:41.913Z,21.27
2019-05-16T03:01:05.365Z,21.28
2019-05-16T03:01:31.688Z,21.28
2019-05-16T03:01:56.666Z,21.28
2019-05-16T03:02:21.832Z,21.27
2019-05-16T03:02:47.038Z,21.27
2019-05-16T03:03:12.339Z,21.27
2019-05-16T03:03:40.204Z,21.26
2019-05-16T03:04:03.866Z,21.27
2019-05-16T03:04:30.595Z,21.27
2019-05-16T03:04:56.019Z,21.26
2019-05-16T03:05:21.233Z,21.26
2019-05-16T03:05:45.846Z,21.26
2019-05-16T03:06:11.623Z,21.25
2019-05-16T03:06:36.967Z,21.26
2019-05-16T03:07:02.269Z,21.25
2019-05-16T03:07:37.947Z,21.25
2019-05-16T03:07:53.833Z,21.26
2019-05-16T03:08:21.068Z,21.26
2019-05-16T03:08:47.045Z,21.24
2019-05-16T03:09:11.777Z,21.25
2019-05-16T03:09:37.161Z,21.24
2019-05-16T03:10:02.484Z,21.25
2019-05-16T03:10:30.943Z,21.26
2019-05-16T03:10:54.480Z,21.24
2019-05-16T03:11:21.154Z,21.24
2019-05-16T03:11:46.690Z,21.24
2019-05-16T03:12:11.899Z,21.23
2019-05-16T03:12:40.887Z,21.24
2019-05-16T03:13:05.351Z,21.23
2019-05-16T03:13:31.625Z,21.21
2019-05-16T03:13:56.798Z,21.23
2019-05-16T03:14:21.508Z,21.23
2019-05-16T03:14:47.348Z,21.23
2019-05-16T03:15:12.649Z,21.23
2019-05-16T03:15:40.748Z,21.23
2019-05-16T03:16:04.547Z,21.21
2019-05-16T03:16:31.597Z,21.23
2019-05-16T03:16:57.147Z,21.22
2019-05-16T03:17:22.336Z,21.23
2019-05-16T03:17:46.969Z,21.22
2019-05-16T03:18:12.137Z,21.22
2019-05-16T03:18:37.297Z,21.21
2019-05-16T03:19:04.569Z,21.21
2019-05-16T03:19:31.172Z,21.22
2019-05-16T03:19:56.791Z,21.22
2019-05-16T03:20:21.979Z,21.21
2019-05-16T03:20:47.154Z,21.21
2019-05-16T03:21:12.627Z,21.21
2019-05-16T03:21:37.926Z,21.21
2019-05-16T03:22:03.166Z,21.21
2019-05-16T03:22:31.251Z,21.20
2019-05-16T03:22:54.956Z,21.22
2019-05-16T03:23:21.820Z,21.21
2019-05-16T03:23:47.205Z,21.21
2019-05-16T03:24:12.389Z,21.20
2019-05-16T03:24:37.022Z,21.20
2019-05-16T03:25:02.181Z,21.20
2019-05-16T03:25:30.907Z,21.19
2019-05-16T03:25:55.615Z,21.20
2019-05-16T03:26:21.041Z,21.19
2019-05-16T03:26:46.439Z,21.20
2019-05-16T03:27:11.594Z,21.20
2019-05-16T03:27:36.771Z,21.21
2019-05-16T03:28:02.094Z,21.20
2019-05-16T03:28:30.498Z,21.19
2019-05-16T03:28:54.523Z,21.19
2019-05-16T03:29:21.884Z,21.20
2019-05-16T03:29:46.117Z,21.20
2019-05-16T03:30:15.740Z,21.19
2019-05-16T03:30:43.819Z,21.19
2019-05-16T03:31:06.249Z,21.19
2019-05-16T03:31:34.027Z,21.18
2019-05-16T03:32:02.534Z,21.18
2019-05-16T03:32:24.938Z,21.18
2019-05-16T03:32:54.693Z,21.18
2019-05-16T03:33:23.881Z,21.17
2019-05-16T03:33:56.254Z,21.17
2019-05-16T03:34:15.943Z,21.17
2019-05-16T03:34:37.175Z,21.17
2019-05-16T03:35:05.239Z,21.17
2019-05-16T03:35:33.439Z,21.17
2019-05-16T03:35:56.091Z,21.15
2019-05-16T03:36:25.126Z,21.15
2019-05-16T03:36:53.711Z,21.15
2019-05-16T03:37:15.211Z,21.15
2019-05-16T03:37:54.005Z,21.16
2019-05-16T03:38:07.409Z,21.15
2019-05-16T03:38:32.026Z,21.14
2019-05-16T03:38:57.248Z,21.14
2019-05-16T03:39:22.452Z,21.14
2019-05-16T03:39:47.639Z,21.14
2019-05-16T03:40:26.728Z,21.14
2019-05-16T03:40:51.891Z,21.14
2019-05-16T03:41:17.115Z,21.14
2019-05-16T03:41:42.299Z,21.14
2019-05-16T03:42:07.459Z,21.15
2019-05-16T03:42:32.146Z,21.14
2019-05-16T03:42:57.431Z,21.14
2019-05-16T03:43:22.578Z,21.15
2019-05-16T03:43:50.496Z,21.14
2019-05-16T03:44:14.260Z,21.13
2019-05-16T03:44:41.100Z,21.14
2019-05-16T03:45:06.539Z,21.13
2019-05-16T03:45:32.345Z,21.15
2019-05-16T03:45:57.165Z,21.15
2019-05-16T03:46:22.375Z,21.15
2019-05-16T03:46:47.644Z,21.14
2019-05-16T03:47:12.802Z,21.13
2019-05-16T03:47:37.447Z,21.14
2019-05-16T03:48:03.316Z,21.13
2019-05-16T03:48:31.432Z,21.14
2019-05-16T03:48:55.681Z,21.14
2019-05-16T03:49:21.184Z,21.14
2019-05-16T03:49:46.572Z,21.14
2019-05-16T03:50:11.746Z,21.14
2019-05-16T03:50:36.929Z,21.13
2019-05-16T03:51:01.558Z,21.13
2019-05-16T03:51:26.717Z,21.15
2019-05-16T03:51:51.910Z,21.14
2019-05-16T03:52:17.088Z,21.14
2019-05-16T03:52:43.583Z,21.15
2019-05-16T03:53:11.559Z,21.15
2019-05-16T03:53:35.691Z,21.14
2019-05-16T03:54:02.805Z,21.14
2019-05-16T03:54:27.785Z,21.13
2019-05-16T03:54:52.391Z,21.13
2019-05-16T03:55:21.332Z,21.14
2019-05-16T03:55:46.411Z,21.14
2019-05-16T03:56:11.675Z,21.13
2019-05-16T03:56:36.382Z,21.12
2019-05-16T03:57:01.624Z,21.13
2019-05-16T03:57:26.800Z,21.13
2019-05-16T03:57:52.115Z,21.13
2019-05-16T03:58:22.087Z,21.13
2019-05-16T03:58:43.671Z,21.13
2019-05-16T03:59:10.995Z,21.13
2019-05-16T03:59:35.741Z,21.12
2019-05-16T04:00:00.997Z,21.12
2019-05-16T04:00:54.091Z,21.12
2019-05-16T04:01:21.043Z,21.11
2019-05-16T04:01:46.463Z,21.12
2019-05-16T04:02:11.710Z,21.11
2019-05-16T04:02:36.327Z,21.11
2019-05-16T04:03:01.523Z,21.10
2019-05-16T04:03:28.961Z,21.10
2019-05-16T04:03:53.570Z,21.09
2019-05-16T04:04:20.817Z,21.08
2019-05-16T04:04:45.094Z,21.07
2019-05-16T04:05:11.100Z,21.07
2019-05-16T04:05:36.745Z,21.06
2019-05-16T04:06:01.654Z,21.06
2019-05-16T04:06:26.915Z,21.06
2019-05-16T04:06:52.077Z,21.04
2019-05-16T04:07:17.264Z,21.03
2019-05-16T04:07:42.477Z,21.04
2019-05-16T04:08:14.830Z,21.03
2019-05-16T04:08:34.139Z,21.03
2019-05-16T04:09:01.605Z,21.03
2019-05-16T04:09:26.192Z,21.03
2019-05-16T04:09:50.886Z,21.02
2019-05-16T04:10:16.084Z,21.03
2019-05-16T04:10:41.449Z,21.02
2019-05-16T04:11:06.612Z,21.02
2019-05-16T04:11:32.120Z,21.03
2019-05-16T04:11:57.637Z,21.03
2019-05-16T04:12:22.858Z,21.03
2019-05-16T04:12:48.048Z,21.04
2019-05-16T04:13:12.754Z,21.03
2019-05-16T04:13:40.981Z,21.03
2019-05-16T04:14:05.283Z,21.04
2019-05-16T04:14:31.096Z,21.04
2019-05-16T04:14:55.895Z,21.04
2019-05-16T04:15:21.575Z,21.05
2019-05-16T04:15:46.804Z,21.04
2019-05-16T04:16:13.492Z,21.06
2019-05-16T04:16:41.207Z,21.06
2019-05-16T04:17:05.432Z,21.06
2019-05-16T04:17:31.741Z,21.06
2019-05-16T04:17:57.221Z,21.08
2019-05-16T04:18:22.622Z,21.07
2019-05-16T04:18:51.149Z,21.09
2019-05-16T04:19:14.926Z,21.10
2019-05-16T04:19:41.590Z,21.09
2019-05-16T04:20:11.810Z,21.10
2019-05-16T04:20:36.824Z,21.11
2019-05-16T04:21:02.815Z,21.10
2019-05-16T04:21:31.956Z,21.10
2019-05-16T04:21:54.334Z,21.11
2019-05-16T04:22:21.484Z,21.10
2019-05-16T04:22:46.528Z,21.13
2019-05-16T04:23:11.713Z,21.13
2019-05-16T04:23:36.445Z,21.14
2019-05-16T04:24:01.626Z,21.15
2019-05-16T04:24:26.795Z,21.17
2019-05-16T04:24:52.394Z,21.20
2019-05-16T04:25:17.579Z,21.20
2019-05-16T04:25:42.255Z,21.22
2019-05-16T04:26:07.428Z,21.22
2019-05-16T04:26:35.890Z,21.24
2019-05-16T04:27:00.997Z,21.25
2019-05-16T04:27:25.894Z,21.26
2019-05-16T04:27:51.143Z,21.28
2019-05-16T04:28:16.312Z,21.30
2019-05-16T04:28:41.670Z,21.31
2019-05-16T04:29:06.319Z,21.33
2019-05-16T04:29:31.926Z,21.35
2019-05-16T04:30:01.192Z,21.36
2019-05-16T04:30:24.182Z,21.37
2019-05-16T04:30:50.761Z,21.38
2019-05-16T04:31:15.700Z,21.40
2019-05-16T04:31:41.431Z,21.40
2019-05-16T04:32:07.081Z,21.41
2019-05-16T04:32:31.791Z,21.43
2019-05-16T04:32:56.969Z,21.45
2019-05-16T04:33:22.807Z,21.46
2019-05-16T04:33:51.404Z,21.47
2019-05-16T04:34:14.485Z,21.47
2019-05-16T04:34:42.050Z,21.48
2019-05-16T04:35:07.307Z,21.49
2019-05-16T04:35:32.517Z,21.51
2019-05-16T04:35:57.126Z,21.52
2019-05-16T04:36:23.371Z,21.54
2019-05-16T04:36:51.559Z,21.54
2019-05-16T04:37:21.790Z,21.57
2019-05-16T04:37:44.843Z,21.57
2019-05-16T04:38:13.086Z,21.60
2019-05-16T04:38:45.014Z,21.61
2019-05-16T04:39:06.087Z,21.62
2019-05-16T04:39:31.908Z,21.63
2019-05-16T04:40:00.902Z,21.65
2019-05-16T04:40:24.594Z,21.64
2019-05-16T04:40:51.762Z,21.68
2019-05-16T04:41:16.165Z,21.69
2019-05-16T04:41:41.341Z,21.70
2019-05-16T04:42:06.514Z,21.71
2019-05-16T04:42:31.720Z,21.72
2019-05-16T04:42:56.349Z,21.73
2019-05-16T04:43:22.309Z,21.75
2019-05-16T04:43:50.463Z,21.75
2019-05-16T04:44:15.014Z,21.76
2019-05-16T04:44:41.706Z,21.78
2019-05-16T04:45:11.507Z,21.79
2019-05-16T04:45:35.064Z,21.81
2019-05-16T04:46:01.438Z,21.82
2019-05-16T04:46:26.305Z,21.84
2019-05-16T04:46:51.529Z,21.85
2019-05-16T04:47:16.711Z,21.86
2019-05-16T04:47:41.889Z,21.87
2019-05-16T04:48:07.057Z,21.89
2019-05-16T04:48:31.730Z,21.90
2019-05-16T04:48:56.938Z,21.90
2019-05-16T04:49:22.158Z,21.91
2019-05-16T04:49:47.340Z,21.93
2019-05-16T04:50:13.614Z,21.93
2019-05-16T04:50:41.770Z,21.94
2019-05-16T04:51:05.666Z,21.95
2019-05-16T04:51:30.913Z,21.96
2019-05-16T04:51:55.558Z,21.96
2019-05-16T04:52:21.922Z,21.96
2019-05-16T04:52:47.300Z,21.98
2019-05-16T04:53:12.461Z,21.99
2019-05-16T04:53:37.104Z,22.00
2019-05-16T04:54:06.763Z,22.00
2019-05-16T04:54:30.886Z,22.01
2019-05-16T04:54:56.270Z,22.01
2019-05-16T04:55:21.247Z,22.01
2019-05-16T04:55:46.597Z,22.02
2019-05-16T04:56:11.847Z,22.02
2019-05-16T04:56:40.991Z,22.03
2019-05-16T04:57:04.431Z,22.04
2019-05-16T04:57:31.309Z,22.04
2019-05-16T04:57:56.545Z,22.05
2019-05-16T04:58:23.784Z,22.05
2019-05-16T04:58:51.385Z,22.05
2019-05-16T04:59:16.833Z,22.05
2019-05-16T04:59:42.873Z,22.05
2019-05-16T05:00:11.278Z,22.06
2019-05-16T05:00:34.719Z,22.06
2019-05-16T05:01:01.513Z,22.08
2019-05-16T05:01:30.463Z,22.07
2019-05-16T05:01:55.476Z,22.06
2019-05-16T05:02:21.304Z,22.06
2019-05-16T05:02:46.742Z,22.07
2019-05-16T05:03:12.068Z,22.08
2019-05-16T05:03:40.663Z,22.08
2019-05-16T05:04:10.898Z,22.07
2019-05-16T05:04:30.925Z,22.07
2019-05-16T05:04:56.179Z,22.07
2019-05-16T05:05:21.762Z,22.07
2019-05-16T05:05:46.510Z,22.07
2019-05-16T05:06:11.676Z,22.08
2019-05-16T05:06:36.879Z,22.08
2019-05-16T05:07:02.628Z,22.09
2019-05-16T05:07:27.315Z,22.09
2019-05-16T05:07:52.631Z,22.11
2019-05-16T05:08:21.968Z,22.09
2019-05-16T05:08:54.009Z,22.12
2019-05-16T05:09:12.839Z,22.12
2019-05-16T05:09:40.595Z,22.12
2019-05-16T05:10:06.554Z,22.11
2019-05-16T05:10:31.739Z,22.12
2019-05-16T05:10:56.381Z,22.11
2019-05-16T05:11:21.855Z,22.12
2019-05-16T05:11:47.436Z,22.13
2019-05-16T05:12:12.671Z,22.12
2019-05-16T05:12:37.337Z,22.13
2019-05-16T05:13:02.557Z,22.12
2019-05-16T05:13:30.502Z,22.12
2019-05-16T05:13:54.623Z,22.13
2019-05-16T05:14:21.182Z,22.12
2019-05-16T05:14:46.136Z,22.12
2019-05-16T05:15:11.781Z,22.13
2019-05-16T05:15:40.066Z,22.12
2019-05-16T05:16:04.943Z,22.13
2019-05-16T05:16:30.661Z,22.12
2019-05-16T05:16:56.075Z,22.12
2019-05-16T05:17:21.283Z,22.12
2019-05-16T05:17:46.077Z,22.13
2019-05-16T05:18:11.323Z,22.13
2019-05-16T05:18:36.954Z,22.11
2019-05-16T05:19:02.356Z,22.12
2019-05-16T05:19:26.987Z,22.12
2019-05-16T05:19:52.194Z,22.12
2019-05-16T05:20:17.424Z,22.12
2019-05-16T05:20:42.573Z,22.11
2019-05-16T05:21:07.240Z,22.12
2019-05-16T05:21:32.408Z,22.11
2019-05-16T05:22:01.152Z,22.12
2019-05-16T05:22:24.517Z,22.12
2019-05-16T05:22:49.980Z,22.12
2019-05-16T05:23:15.303Z,22.11
2019-05-16T05:23:40.820Z,22.12
2019-05-16T05:24:06.092Z,22.13
2019-05-16T05:24:30.709Z,22.13
2019-05-16T05:24:55.971Z,22.13
2019-05-16T05:25:21.180Z,22.13
2019-05-16T05:25:46.351Z,22.13
2019-05-16T05:26:11.546Z,22.14
2019-05-16T05:26:36.184Z,22.14
2019-05-16T05:27:01.433Z,22.14
2019-05-16T05:27:26.936Z,22.13
2019-05-16T05:27:52.135Z,22.14
2019-05-16T05:28:17.323Z,22.14
2019-05-16T05:28:41.947Z,22.14
2019-05-16T05:29:07.133Z,22.14
2019-05-16T05:29:32.303Z,22.14
2019-05-16T05:29:57.459Z,22.14
2019-05-16T05:30:22.679Z,22.14
2019-05-16T05:30:47.309Z,22.14